Time;durP1;ratioP1;P1;durP2;ratioP2;P2;SDS_P1;SDS_P2;PMS_P1;PMS_P2;Temp;Humidity;BMP_temperature;BMP_pressure;BME280_temperature;BME280_humidity;BME280_pressure;Samples;Min_cycle;Max_cycle;Signal;HPM_P1;HPM_P2
2022/06/18 00:00:23;;;;;;;1.00;0.90;;;;;;;;;;5114366;28;20023;-56
2022/06/18 00:02:49;;;;;;;1.70;1.30;;;;;;;;;;5113815;28;20016;-54
2022/06/18 00:05:17;;;;;;;0.90;0.90;;;;;;;;;;5113886;28;20019;-56
2022/06/18 00:07:45;;;;;;;1.40;1.30;;;;;;;;;;5113799;28;20034;-57
2022/06/18 00:10:18;;;;;;;5.88;1.30;;;;;;;;;;5113780;28;20491;-56
2022/06/18 00:15:33;;;;;;;1.35;1.25;;;;;;;;;;5113559;28;20074;-55
2022/06/18 00:17:59;;;;;;;1.53;1.40;;;;;;;;;;5113690;28;20036;-57
2022/06/18 00:20:27;;;;;;;1.83;1.38;;;;;;;;;;5113992;28;20282;-49
2022/06/18 00:23:01;;;;;;;1.35;1.15;;;;;;;;;;5113624;28;20024;-47
2022/06/18 00:25:33;;;;;;;1.25;1.20;;;;;;;;;;5113863;28;20027;-49
2022/06/18 00:28:00;;;;;;;2.28;1.45;;;;;;;;;;5113589;28;20472;-48
2022/06/18 00:30:28;;;;;;;2.13;1.40;;;;;;;;;;5113535;28;20027;-49
2022/06/18 00:32:54;;;;;;;2.20;1.63;;;;;;;;;;5113728;28;20034;-56
2022/06/18 00:35:20;;;;;;;3.53;1.50;;;;;;;;;;5113569;28;20375;-57
2022/06/18 00:37:51;;;;;;;3.08;1.60;;;;;;;;;;5113606;28;20145;-56
2022/06/18 00:40:23;;;;;;;5.15;1.63;;;;;;;;;;5113617;28;20020;-50
2022/06/18 00:42:50;;;;;;;1.75;1.23;;;;;;;;;;5113689;28;20111;-50
2022/06/18 00:45:23;;;;;;;1.98;1.45;;;;;;;;;;5113266;28;20441;-58
2022/06/18 00:47:58;;;;;;;1.40;1.30;;;;;;;;;;5113248;28;20112;-57
2022/06/18 00:50:29;;;;;;;2.08;1.40;;;;;;;;;;5113221;28;20027;-57
2022/06/18 00:53:05;;;;;;;2.65;1.42;;;;;;;;;;5111915;28;20463;-58
2022/06/18 00:55:43;;;;;;;1.60;1.45;;;;;;;;;;5111821;28;20027;-57
2022/06/18 00:58:26;;;;;;;2.67;1.48;;;;;;;;;;5113343;28;20116;-58
2022/06/18 01:00:54;;;;;;;1.67;1.58;;;;;;;;;;5113027;28;20035;-57
2022/06/18 01:03:27;;;;;;;3.40;1.63;;;;;;;;;;5113294;28;20051;-51
2022/06/18 01:05:55;;;;;;;1.77;1.60;;;;;;;;;;5113012;28;20102;-51
2022/06/18 01:08:23;;;;;;;1.70;1.60;;;;;;;;;;5113047;28;20024;-55
2022/06/18 01:10:52;;;;;;;3.10;1.80;;;;;;;;;;5112795;28;20024;-54
2022/06/18 01:13:21;;;;;;;4.70;1.77;;;;;;;;;;5112959;28;20081;-53
2022/06/18 01:15:47;;;;;;;2.63;1.80;;;;;;;;;;5113263;28;20077;-52
2022/06/18 01:18:13;;;;;;;3.20;2.00;;;;;;;;;;5112893;28;20020;-47
2022/06/18 01:20:46;;;;;;;2.15;1.95;;;;;;;;;;5112777;28;20034;-49
2022/06/18 01:23:25;;;;;;;5.97;2.30;;;;;;;;;;5112795;28;20441;-49
2022/06/18 01:25:52;;;;;;;1.88;1.77;;;;;;;;;;5113096;28;20058;-48
2022/06/18 01:28:18;;;;;;;6.75;2.78;;;;;;;;;;5113009;28;20027;-47
2022/06/18 01:30:44;;;;;;;2.63;1.77;;;;;;;;;;5112789;28;20024;-46
2022/06/18 01:33:11;;;;;;;1.65;1.55;;;;;;;;;;5112879;28;20020;-50
2022/06/18 01:35:40;;;;;;;3.40;1.70;;;;;;;;;;5112669;28;20024;-58
2022/06/18 01:38:05;;;;;;;2.10;1.90;;;;;;;;;;5112656;28;20080;-53
2022/06/18 01:40:54;;;;;;;2.10;1.90;;;;;;;;;;5112837;28;20051;-54
2022/06/18 01:43:21;;;;;;;7.25;1.98;;;;;;;;;;5112798;28;20424;-54
2022/06/18 01:45:56;;;;;;;3.03;1.80;;;;;;;;;;5112600;28;20027;-51
2022/06/18 01:48:36;;;;;;;1.95;1.83;;;;;;;;;;5112545;28;20020;-47
2022/06/18 01:51:13;;;;;;;2.63;2.03;;;;;;;;;;5112839;28;20042;-56
2022/06/18 01:53:54;;;;;;;2.17;1.73;;;;;;;;;;5112639;28;20039;-49
2022/06/18 01:56:24;;;;;;;3.70;2.13;;;;;;;;;;5112499;28;20027;-52
2022/06/18 01:59:07;;;;;;;11.90;2.07;;;;;;;;;;5112418;28;20533;-54
2022/06/18 02:01:38;;;;;;;5.03;2.00;;;;;;;;;;5112516;28;20559;-52
2022/06/18 02:04:04;;;;;;;5.20;2.13;;;;;;;;;;5112442;28;20030;-47
2022/06/18 02:06:34;;;;;;;2.30;2.08;;;;;;;;;;5112675;28;20024;-49
2022/06/18 02:09:07;;;;;;;2.47;2.15;;;;;;;;;;5112345;28;20052;-51
2022/06/18 02:11:32;;;;;;;2.97;2.35;;;;;;;;;;5112357;28;20035;-54
2022/06/18 02:14:03;;;;;;;2.38;2.17;;;;;;;;;;5112033;28;20062;-54
2022/06/18 02:16:35;;;;;;;2.42;2.13;;;;;;;;;;5112583;28;20058;-46
2022/06/18 02:19:03;;;;;;;3.25;2.20;;;;;;;;;;5112614;28;20030;-53
2022/06/18 02:21:34;;;;;;;3.75;2.70;;;;;;;;;;5113815;28;20038;-48
2022/06/18 02:24:00;;;;;;;2.83;2.40;;;;;;;;;;5116343;28;20027;-51
2022/06/18 02:26:28;;;;;;;3.45;2.15;;;;;;;;;;5116188;28;20024;-51
2022/06/18 02:28:55;;;;;;;3.05;2.38;;;;;;;;;;5116178;28;20051;-51
2022/06/18 02:31:25;;;;;;;3.85;2.15;;;;;;;;;;5115823;28;20098;-51
2022/06/18 02:33:55;;;;;;;2.88;2.30;;;;;;;;;;5116046;28;20428;-52
2022/06/18 02:36:24;;;;;;;4.95;2.65;;;;;;;;;;5115814;28;20019;-55
2022/06/18 02:38:56;;;;;;;4.88;2.30;;;;;;;;;;5115916;28;20104;-51
2022/06/18 02:41:22;;;;;;;4.30;2.58;;;;;;;;;;5115751;28;20048;-48
2022/06/18 02:43:48;;;;;;;2.40;2.20;;;;;;;;;;5115603;28;20509;-56
2022/06/18 02:46:14;;;;;;;11.95;2.72;;;;;;;;;;5115783;28;20023;-55
2022/06/18 02:48:40;;;;;;;6.10;3.17;;;;;;;;;;5115847;28;20383;-54
2022/06/18 02:51:07;;;;;;;12.10;3.60;;;;;;;;;;5115679;28;20031;-53
2022/06/18 02:53:33;;;;;;;3.42;2.90;;;;;;;;;;5115624;28;20085;-57
2022/06/18 02:56:04;;;;;;;5.25;2.65;;;;;;;;;;5115662;28;20566;-55
2022/06/18 02:58:40;;;;;;;3.00;2.45;;;;;;;;;;5115641;28;20047;-58
2022/06/18 03:01:10;;;;;;;4.07;2.58;;;;;;;;;;5115294;28;20081;-53
2022/06/18 03:03:38;;;;;;;;;;;;;;;;;;5116005;28;20366;-51
2022/06/18 03:06:05;;;;;;;4.47;2.20;;;;;;;;;;5115403;28;19918;-46
2022/06/18 03:08:32;;;;;;;3.65;2.60;;;;;;;;;;5115420;28;20031;-55
2022/06/18 03:13:44;;;;;;;7.90;2.70;;;;;;;;;;5114966;28;20047;-47
2022/06/18 03:16:12;;;;;;;2.20;2.00;;;;;;;;;;5115271;28;20118;-55
2022/06/18 03:18:39;;;;;;;5.05;2.25;;;;;;;;;;5114886;28;20479;-59
2022/06/18 03:21:27;;;;;;;3.58;2.80;;;;;;;;;;5114862;28;20027;-59
2022/06/18 03:23:53;;;;;;;2.95;2.42;;;;;;;;;;5114905;28;20027;-57
2022/06/18 03:26:18;;;;;;;2.90;2.70;;;;;;;;;;5114737;28;20031;-52
2022/06/18 03:28:45;;;;;;;4.25;2.80;;;;;;;;;;5114737;28;20106;-55
2022/06/18 03:31:10;;;;;;;2.75;2.40;;;;;;;;;;5114941;28;20040;-59
2022/06/18 03:33:36;;;;;;;3.78;2.58;;;;;;;;;;5114554;28;20082;-58
2022/06/18 03:36:03;;;;;;;2.42;2.22;;;;;;;;;;5114812;28;20042;-59
2022/06/18 03:38:29;;;;;;;17.00;9.45;;;;;;;;;;5114725;28;20021;-58
2022/06/18 03:40:55;;;;;;;7.13;3.10;;;;;;;;;;5114535;28;20445;-57
2022/06/18 03:43:25;;;;;;;3.65;2.67;;;;;;;;;;5114730;28;20051;-58
2022/06/18 03:46:00;;;;;;;3.53;2.20;;;;;;;;;;5114404;28;20074;-58
2022/06/18 03:48:34;;;;;;;3.50;2.33;;;;;;;;;;5114691;28;20364;-58
2022/06/18 03:50:59;;;;;;;3.88;2.58;;;;;;;;;;5114847;28;20049;-60
2022/06/18 03:53:25;;;;;;;3.47;2.47;;;;;;;;;;5114159;28;20523;-58
2022/06/18 03:55:51;;;;;;;3.30;2.78;;;;;;;;;;5114501;28;20102;-48
2022/06/18 03:58:17;;;;;;;5.82;2.25;;;;;;;;;;5114414;28;20023;-52
2022/06/18 04:00:42;;;;;;;6.13;2.60;;;;;;;;;;5114186;28;20032;-55
2022/06/18 04:03:08;;;;;;;3.13;2.30;;;;;;;;;;5114049;28;20023;-51
2022/06/18 04:05:38;;;;;;;6.38;2.30;;;;;;;;;;5113945;28;20031;-49
2022/06/18 04:08:03;;;;;;;4.47;2.95;;;;;;;;;;5113898;28;20033;-53
2022/06/18 04:10:29;;;;;;;4.22;3.40;;;;;;;;;;5114152;28;20027;-53
2022/06/18 04:12:54;;;;;;;2.88;2.67;;;;;;;;;;5114157;28;20370;-50
2022/06/18 04:15:20;;;;;;;4.25;3.85;;;;;;;;;;5113546;28;20148;-51
2022/06/18 04:17:46;;;;;;;4.05;2.63;;;;;;;;;;5114041;27;20035;-52
2022/06/18 04:20:20;;;;;;;5.75;2.78;;;;;;;;;;5113797;28;20368;-53
2022/06/18 04:22:46;;;;;;;2.67;2.25;;;;;;;;;;5113748;28;20532;-46
2022/06/18 04:25:11;;;;;;;4.70;2.65;;;;;;;;;;5113522;28;20027;-52
2022/06/18 04:27:37;;;;;;;7.80;3.42;;;;;;;;;;5113599;28;20028;-49
2022/06/18 04:30:04;;;;;;;6.70;3.90;;;;;;;;;;5113802;28;20023;-50
2022/06/18 04:32:29;;;;;;;3.53;3.20;;;;;;;;;;5113821;28;20072;-53
2022/06/18 04:34:55;;;;;;;8.80;4.40;;;;;;;;;;5113368;28;20554;-55
2022/06/18 04:37:20;;;;;;;6.65;3.75;;;;;;;;;;5113473;28;20023;-55
2022/06/18 04:39:46;;;;;;;4.60;3.03;;;;;;;;;;5113604;28;20134;-53
2022/06/18 04:42:11;;;;;;;6.15;3.83;;;;;;;;;;5113286;28;20471;-49
2022/06/18 04:44:37;;;;;;;7.10;3.30;;;;;;;;;;5113073;28;20031;-52
2022/06/18 04:47:02;;;;;;;3.53;3.13;;;;;;;;;;5113430;28;20035;-47
2022/06/18 04:49:28;;;;;;;3.88;3.50;;;;;;;;;;5112910;28;20122;-49
2022/06/18 04:51:53;;;;;;;3.65;3.08;;;;;;;;;;5113229;28;20081;-52
2022/06/18 04:54:19;;;;;;;4.47;3.50;;;;;;;;;;5113318;28;20024;-57
2022/06/18 04:56:44;;;;;;;5.95;3.55;;;;;;;;;;5113085;28;20421;-52
2022/06/18 04:59:10;;;;;;;2.38;2.17;;;;;;;;;;5113101;28;20110;-51
2022/06/18 05:01:35;;;;;;;8.23;3.05;;;;;;;;;;5112942;28;20024;-49
2022/06/18 05:04:01;;;;;;;3.63;2.70;;;;;;;;;;5112992;28;20031;-50
2022/06/18 05:06:26;;;;;;;2.10;1.90;;;;;;;;;;5113299;28;20023;-47
2022/06/18 05:08:52;;;;;;;3.47;2.85;;;;;;;;;;5113193;28;20395;-52
2022/06/18 05:11:17;;;;;;;6.38;2.47;;;;;;;;;;5112944;28;20463;-53
2022/06/18 05:13:43;;;;;;;3.40;2.92;;;;;;;;;;5112625;28;20453;-52
2022/06/18 05:16:09;;;;;;;3.80;2.92;;;;;;;;;;5113185;28;20024;-52
2022/06/18 05:18:35;;;;;;;5.20;2.45;;;;;;;;;;5113148;28;20020;-56
2022/06/18 05:21:01;;;;;;;2.72;2.50;;;;;;;;;;5112757;28;20105;-48
2022/06/18 05:23:27;;;;;;;7.78;3.60;;;;;;;;;;5112778;28;20019;-50
2022/06/18 05:25:59;;;;;;;2.63;2.38;;;;;;;;;;5112703;28;20024;-49
2022/06/18 05:28:24;;;;;;;6.55;2.90;;;;;;;;;;5112719;28;20026;-47
2022/06/18 05:30:50;;;;;;;3.08;2.42;;;;;;;;;;5112945;28;20015;-47
2022/06/18 05:33:15;;;;;;;3.83;1.88;;;;;;;;;;5112985;28;20023;-47
2022/06/18 05:35:42;;;;;;;6.70;2.30;;;;;;;;;;5112557;28;20441;-47
2022/06/18 05:38:14;;;;;;;5.60;3.10;;;;;;;;;;5113032;28;20027;-46
2022/06/18 05:40:40;;;;;;;3.58;2.20;;;;;;;;;;5112921;28;20052;-50
2022/06/18 05:43:05;;;;;;;1.80;1.70;;;;;;;;;;5112624;28;20050;-49
2022/06/18 05:45:31;;;;;;;6.55;2.80;;;;;;;;;;5112589;28;20032;-47
2022/06/18 05:47:56;;;;;;;6.55;2.15;;;;;;;;;;5112594;28;20019;-47
2022/06/18 05:50:22;;;;;;;3.70;2.00;;;;;;;;;;5112579;28;20019;-47
2022/06/18 05:52:47;;;;;;;2.40;1.83;;;;;;;;;;5112781;28;20027;-46
2022/06/18 05:55:13;;;;;;;4.55;2.13;;;;;;;;;;5112454;28;20403;-45
2022/06/18 05:57:47;;;;;;;2.63;2.22;;;;;;;;;;5115791;28;20034;-48
2022/06/18 06:00:15;;;;;;;5.45;2.30;;;;;;;;;;5116713;28;20024;-53
2022/06/18 06:02:40;;;;;;;2.25;2.05;;;;;;;;;;5116385;28;20107;-54
2022/06/18 06:05:06;;;;;;;2.50;1.88;;;;;;;;;;5116299;28;20062;-49
2022/06/18 06:07:31;;;;;;;2.10;1.73;;;;;;;;;;5116195;28;20367;-54
2022/06/18 06:12:42;;;;;;;4.47;2.13;;;;;;;;;;5116253;28;20122;-48
2022/06/18 06:15:08;;;;;;;5.55;3.08;;;;;;;;;;5115846;28;20042;-55
2022/06/18 06:17:34;;;;;;;2.13;1.85;;;;;;;;;;5116342;28;20035;-45
2022/06/18 06:20:17;;;;;;;4.30;2.28;;;;;;;;;;5116294;28;20024;-53
2022/06/18 06:22:43;;;;;;;10.48;1.73;;;;;;;;;;5115978;28;20471;-51
2022/06/18 06:25:08;;;;;;;2.20;2.00;;;;;;;;;;5115945;28;20024;-45
2022/06/18 06:27:34;;;;;;;3.00;1.55;;;;;;;;;;5115911;28;20024;-49
2022/06/18 06:29:59;;;;;;;1.85;1.27;;;;;;;;;;5114629;28;20024;-49
2022/06/18 06:32:25;;;;;;;2.22;1.50;;;;;;;;;;5116105;28;20463;-55
2022/06/18 06:34:50;;;;;;;6.78;2.20;;;;;;;;;;5115994;28;20031;-47
2022/06/18 06:37:16;;;;;;;5.88;2.50;;;;;;;;;;5115765;28;20379;-48
2022/06/18 06:39:41;;;;;;;1.50;1.23;;;;;;;;;;5115750;28;20044;-53
2022/06/18 06:42:08;;;;;;;2.05;1.95;;;;;;;;;;5115671;28;20024;-47
2022/06/18 06:44:34;;;;;;;18.30;1.63;;;;;;;;;;5115601;28;20122;-50
2022/06/18 06:46:59;;;;;;;1.75;1.45;;;;;;;;;;5115552;28;20063;-48
2022/06/18 06:49:25;;;;;;;2.85;1.38;;;;;;;;;;5115774;28;20031;-47
2022/06/18 06:51:53;;;;;;;2.33;1.30;;;;;;;;;;5115444;27;20471;-51
2022/06/18 06:54:19;;;;;;;3.28;1.70;;;;;;;;;;5115655;28;20031;-49
2022/06/18 06:59:28;;;;;;;2.17;1.50;;;;;;;;;;5115656;28;20097;-48
2022/06/18 07:01:54;;;;;;;1.67;1.25;;;;;;;;;;5115618;28;20024;-48
2022/06/18 07:04:19;;;;;;;1.40;1.30;;;;;;;;;;5115222;28;20429;-49
2022/06/18 07:06:45;;;;;;;1.90;1.70;;;;;;;;;;5115117;28;20024;-50
2022/06/18 07:09:10;;;;;;;1.20;1.10;;;;;;;;;;5115164;28;20055;-49
2022/06/18 07:11:37;;;;;;;1.50;1.40;;;;;;;;;;5115149;28;20466;-49
2022/06/18 07:14:03;;;;;;;5.45;1.80;;;;;;;;;;5114546;28;20522;-47
2022/06/18 07:16:29;;;;;;;1.73;1.63;;;;;;;;;;5115302;28;20036;-51
2022/06/18 07:18:56;;;;;;;1.60;1.50;;;;;;;;;;5115246;28;20038;-55
2022/06/18 07:21:22;;;;;;;5.13;1.83;;;;;;;;;;5114992;28;20024;-49
2022/06/18 07:23:48;;;;;;;7.05;1.90;;;;;;;;;;5115070;28;20043;-57
2022/06/18 07:26:16;;;;;;;1.65;1.55;;;;;;;;;;5115055;28;20027;-46
2022/06/18 07:28:43;;;;;;;1.83;1.55;;;;;;;;;;5115046;27;20080;-52
2022/06/18 07:31:15;;;;;;;2.30;1.60;;;;;;;;;;5114788;28;20102;-53
2022/06/18 07:33:42;;;;;;;1.60;1.50;;;;;;;;;;5114653;28;20023;-58
2022/06/18 07:36:08;;;;;;;2.55;1.60;;;;;;;;;;5114904;28;20031;-57
2022/06/18 07:38:33;;;;;;;2.45;1.60;;;;;;;;;;5114572;28;20023;-45
2022/06/18 07:40:59;;;;;;;2.10;1.90;;;;;;;;;;5114694;28;20104;-57
2022/06/18 07:43:31;;;;;;;5.15;1.30;;;;;;;;;;5114432;28;20092;-59
2022/06/18 07:45:57;;;;;;;1.63;1.50;;;;;;;;;;5114294;28;20028;-49
2022/06/18 07:48:23;;;;;;;2.25;1.60;;;;;;;;;;5113056;28;20081;-46
2022/06/18 07:50:48;;;;;;;1.52;1.38;;;;;;;;;;5114668;28;20023;-56
2022/06/18 07:53:19;;;;;;;1.42;1.30;;;;;;;;;;5114233;28;20436;-47
2022/06/18 07:55:45;;;;;;;3.08;1.98;;;;;;;;;;5114114;28;20474;-49
2022/06/18 07:58:10;;;;;;;2.08;1.85;;;;;;;;;;5114249;28;20098;-51
2022/06/18 08:00:39;;;;;;;1.33;1.23;;;;;;;;;;5113982;28;20510;-49
2022/06/18 08:03:08;;;;;;;1.13;1.02;;;;;;;;;;5114178;27;20379;-48
2022/06/18 08:05:34;;;;;;;;;;;;;;;;;;5114380;28;20023;-51
2022/06/18 08:08:00;;;;;;;4.22;1.40;;;;;;;;;;5113785;28;20264;-51
2022/06/18 08:10:25;;;;;;;23.13;3.15;;;;;;;;;;5113749;28;20031;-48
2022/06/18 08:12:51;;;;;;;1.88;1.10;;;;;;;;;;5113945;28;20032;-48
2022/06/18 08:15:18;;;;;;;3.17;1.60;;;;;;;;;;5113649;28;20445;-46
2022/06/18 08:17:44;;;;;;;4.95;1.73;;;;;;;;;;5113850;28;20089;-48
2022/06/18 08:20:10;;;;;;;5.32;1.80;;;;;;;;;;5112878;27;20082;-48
2022/06/18 08:22:38;;;;;;;2.92;1.77;;;;;;;;;;5113827;28;20019;-48
2022/06/18 08:25:05;;;;;;;4.53;2.28;;;;;;;;;;5113817;28;20020;-45
2022/06/18 08:27:30;;;;;;;5.72;2.33;;;;;;;;;;5113627;28;20030;-51
2022/06/18 08:29:56;;;;;;;1.23;1.02;;;;;;;;;;5113460;28;20111;-51
2022/06/18 08:32:22;;;;;;;5.28;1.45;;;;;;;;;;5113718;28;20089;-47
2022/06/18 08:34:47;;;;;;;7.07;1.60;;;;;;;;;;5113329;28;20035;-46
2022/06/18 08:37:13;;;;;;;3.35;2.33;;;;;;;;;;5113736;28;20024;-50
2022/06/18 08:39:39;;;;;;;4.35;2.70;;;;;;;;;;5113658;28;20491;-49
2022/06/18 08:42:23;;;;;;;6.18;2.10;;;;;;;;;;5113704;28;20032;-48
2022/06/18 08:45:06;;;;;;;1.63;1.42;;;;;;;;;;5113266;28;20487;-52
2022/06/18 08:47:40;;;;;;;3.15;1.60;;;;;;;;;;5113581;28;20027;-50
2022/06/18 08:50:12;;;;;;;2.30;1.80;;;;;;;;;;5113191;28;20070;-49
2022/06/18 08:52:54;;;;;;;2.03;1.23;;;;;;;;;;5113165;28;20028;-49
2022/06/18 08:55:38;;;;;;;2.45;1.00;;;;;;;;;;5113487;28;20375;-44
2022/06/18 08:58:25;;;;;;;1.15;1.05;;;;;;;;;;5113131;28;20483;-45
2022/06/18 09:01:03;;;;;;;3.05;1.10;;;;;;;;;;5113455;28;20027;-48
2022/06/18 09:03:44;;;;;;;2.20;1.65;;;;;;;;;;5113135;28;20484;-47
2022/06/18 09:06:19;;;;;;;2.85;1.60;;;;;;;;;;5112964;28;20042;-50
2022/06/18 09:09:07;;;;;;;1.00;1.00;;;;;;;;;;5111750;28;20036;-47
2022/06/18 09:11:57;;;;;;;0.95;0.90;;;;;;;;;;5111398;28;20148;-49
2022/06/18 09:14:22;;;;;;;;;;;;;;;;;;5112316;28;20078;-48
2022/06/18 09:17:20;;;;;;;4.93;1.53;;;;;;;;;;5113126;28;19912;-49
2022/06/18 09:19:54;;;;;;;2.08;1.00;;;;;;;;;;5112692;28;20765;-46
2022/06/18 09:22:20;;;;;;;2.17;1.60;;;;;;;;;;5112733;28;20063;-50
2022/06/18 09:24:52;;;;;;;1.75;1.25;;;;;;;;;;5112732;28;20108;-47
2022/06/18 09:27:26;;;;;;;2.25;1.70;;;;;;;;;;5112760;28;20490;-48
2022/06/18 09:30:06;;;;;;;1.27;1.17;;;;;;;;;;5113080;28;20165;-49
2022/06/18 09:32:46;;;;;;;1.50;1.40;;;;;;;;;;5117266;28;20374;-54
2022/06/18 09:35:18;;;;;;;3.00;2.15;;;;;;;;;;5115544;28;20424;-49
2022/06/18 09:37:50;;;;;;;1.67;1.50;;;;;;;;;;5117138;28;20458;-46
2022/06/18 09:40:32;;;;;;;2.15;1.02;;;;;;;;;;5117141;28;20042;-49
2022/06/18 09:43:19;;;;;;;2.33;1.50;;;;;;;;;;5117023;28;20027;-45
2022/06/18 09:45:51;;;;;;;3.72;1.60;;;;;;;;;;5116994;28;20069;-47
2022/06/18 09:48:16;;;;;;;4.80;1.50;;;;;;;;;;5116924;28;20015;-45
2022/06/18 09:50:47;;;;;;;2.38;1.52;;;;;;;;;;5114912;28;20471;-45
2022/06/18 09:53:27;;;;;;;4.70;2.00;;;;;;;;;;5116665;28;20031;-45
2022/06/18 09:55:57;;;;;;;3.90;2.72;;;;;;;;;;5116187;28;20031;-48
2022/06/18 09:58:28;;;;;;;3.22;1.90;;;;;;;;;;5115943;28;20028;-46
2022/06/18 10:00:55;;;;;;;3.63;2.22;;;;;;;;;;5116414;27;20034;-44
2022/06/18 10:08:57;;;;;;;2.60;1.80;;;;;;;;;;5115291;28;20089;-46
2022/06/18 10:11:24;;;;;;;3.35;1.65;;;;;;;;;;5114795;28;20563;-47
2022/06/18 10:13:56;;;;;;;1.77;1.40;;;;;;;;;;5114010;27;20027;-47
2022/06/18 10:16:33;;;;;;;4.93;1.50;;;;;;;;;;5116111;28;20110;-45
2022/06/18 10:19:12;;;;;;;1.65;1.55;;;;;;;;;;5116053;28;20076;-44
2022/06/18 10:21:54;;;;;;;1.08;1.08;;;;;;;;;;5113808;28;20028;-48
2022/06/18 10:24:40;;;;;;;2.47;1.50;;;;;;;;;;5109993;28;20027;-46
2022/06/18 10:27:15;;;;;;;1.60;1.50;;;;;;;;;;5114155;27;20031;-44
2022/06/18 10:30:11;;;;;;;1.67;1.35;;;;;;;;;;5114290;28;20092;-46
2022/06/18 10:32:54;;;;;;;1.70;1.60;;;;;;;;;;5114473;28;20053;-54
2022/06/18 10:35:38;;;;;;;2.33;1.45;;;;;;;;;;5114043;28;20063;-43
2022/06/18 10:38:34;;;;;;;1.98;1.88;;;;;;;;;;5113869;28;20031;-45
2022/06/18 10:41:11;;;;;;;1.95;1.42;;;;;;;;;;5111378;28;20107;-44
2022/06/18 10:44:04;;;;;;;4.65;1.70;;;;;;;;;;5112556;28;20101;-58
2022/06/18 10:46:30;;;;;;;1.95;1.38;;;;;;;;;;5110873;28;20024;-56
2022/06/18 10:48:59;;;;;;;1.70;1.42;;;;;;;;;;5114137;28;20088;-44
2022/06/18 10:51:43;;;;;;;1.75;1.60;;;;;;;;;;5114132;28;20035;-44
2022/06/18 10:54:09;;;;;;;3.08;1.40;;;;;;;;;;5114170;28;20024;-44
2022/06/18 10:56:57;;;;;;;2.05;1.63;;;;;;;;;;5112938;28;20414;-56
2022/06/18 10:59:42;;;;;;;1.70;1.60;;;;;;;;;;5093772;28;20064;-53
2022/06/18 11:02:08;;;;;;;3.50;1.67;;;;;;;;;;5092240;28;20085;-59
2022/06/18 11:04:35;;;;;;;2.67;1.55;;;;;;;;;;5093551;28;20032;-58
2022/06/18 11:07:04;;;;;;;2.22;1.88;;;;;;;;;;5093477;28;20028;-59
2022/06/18 11:10:00;;;;;;;2.40;1.65;;;;;;;;;;5093519;28;20028;-57
2022/06/18 11:12:32;;;;;;;1.95;1.67;;;;;;;;;;5093296;28;20028;-59
2022/06/18 11:14:58;;;;;;;1.60;1.50;;;;;;;;;;5092879;28;20048;-57
2022/06/18 11:17:32;;;;;;;2.33;1.50;;;;;;;;;;5093209;28;20024;-58
2022/06/18 11:20:28;;;;;;;2.10;1.40;;;;;;;;;;5093114;28;20020;-57
2022/06/18 11:22:57;;;;;;;2.53;1.73;;;;;;;;;;5075685;28;20099;-56
2022/06/18 11:25:49;;;;;;;2.17;1.42;;;;;;;;;;5092847;28;20028;-55
2022/06/18 11:28:21;;;;;;;4.82;1.58;;;;;;;;;;5092693;28;20119;-58
2022/06/18 11:30:50;;;;;;;2.95;1.50;;;;;;;;;;5092804;28;20118;-57
2022/06/18 11:33:21;;;;;;;1.50;1.40;;;;;;;;;;5092879;28;20479;-55
2022/06/18 11:35:50;;;;;;;1.80;1.40;;;;;;;;;;5092516;28;20030;-58
2022/06/18 11:38:27;;;;;;;3.20;1.40;;;;;;;;;;5092924;28;20051;-59
2022/06/18 11:40:55;;;;;;;4.47;1.08;;;;;;;;;;5092772;28;20032;-59
2022/06/18 11:43:26;;;;;;;1.52;1.35;;;;;;;;;;5092860;28;20020;-59
2022/06/18 11:45:57;;;;;;;1.60;1.50;;;;;;;;;;5092713;28;20095;-59
2022/06/18 11:48:54;;;;;;;1.67;1.35;;;;;;;;;;5092429;28;20056;-53
2022/06/18 11:51:31;;;;;;;2.00;1.83;;;;;;;;;;5092208;28;20024;-50
2022/06/18 11:53:59;;;;;;;1.83;1.10;;;;;;;;;;5091215;28;20028;-53
2022/06/18 11:56:44;;;;;;;2.97;1.50;;;;;;;;;;5092360;28;20027;-58
2022/06/18 11:59:17;;;;;;;1.90;1.80;;;;;;;;;;5092323;28;20028;-57
2022/06/18 12:01:50;;;;;;;3.97;1.65;;;;;;;;;;5092096;28;20052;-48
2022/06/18 12:04:21;;;;;;;21.38;2.65;;;;;;;;;;5092487;28;20032;-52
2022/06/18 12:07:01;;;;;;;4.90;1.70;;;;;;;;;;5092005;28;20473;-54
2022/06/18 12:09:28;;;;;;;1.67;1.58;;;;;;;;;;5092020;28;20089;-48
2022/06/18 12:12:12;;;;;;;5.85;1.90;;;;;;;;;;5092110;28;20532;-52
2022/06/18 12:14:46;;;;;;;2.65;1.60;;;;;;;;;;5091721;28;20060;-52
2022/06/18 12:17:28;;;;;;;4.82;1.60;;;;;;;;;;5091805;28;20495;-54
2022/06/18 12:20:35;;;;;;;1.55;1.45;;;;;;;;;;5092123;28;20365;-54
2022/06/18 12:23:18;;;;;;;2.08;1.67;;;;;;;;;;5089925;28;20047;-53
2022/06/18 12:25:49;;;;;;;3.35;1.40;;;;;;;;;;5092064;28;20081;-55
2022/06/18 12:28:17;;;;;;;1.55;1.40;;;;;;;;;;5091541;28;20031;-52
2022/06/18 12:30:55;;;;;;;3.22;1.48;;;;;;;;;;5091581;28;20203;-50
2022/06/18 12:33:34;;;;;;;3.20;1.80;;;;;;;;;;5091622;28;20042;-55
2022/06/18 12:36:11;;;;;;;3.50;1.50;;;;;;;;;;5091859;28;20051;-49
2022/06/18 12:38:42;;;;;;;1.70;1.35;;;;;;;;;;5091415;28;20080;-52
2022/06/18 12:41:16;;;;;;;2.72;1.52;;;;;;;;;;5091434;28;20024;-52
2022/06/18 12:44:16;;;;;;;2.33;1.40;;;;;;;;;;5091364;28;20058;-55
2022/06/18 12:46:44;;;;;;;;;;;;;;;;;;5091712;28;20024;-54
2022/06/18 12:49:19;;;;;;;7.88;1.92;;;;;;;;;;5091576;28;19912;-50
2022/06/18 12:52:11;;;;;;;2.92;1.70;;;;;;;;;;5091504;28;20051;-50
2022/06/18 12:54:55;;;;;;;1.48;1.38;;;;;;;;;;5091394;28;20085;-55
2022/06/18 12:57:39;;;;;;;1.83;1.73;;;;;;;;;;5091451;28;20034;-55
2022/06/18 13:00:14;;;;;;;1.50;1.40;;;;;;;;;;5091025;28;20024;-55
2022/06/18 13:02:58;;;;;;;1.20;0.80;;;;;;;;;;5091196;28;20034;-53
2022/06/18 13:05:32;;;;;;;1.70;1.40;;;;;;;;;;5090819;28;20039;-52
2022/06/18 13:08:29;;;;;;;3.53;1.50;;;;;;;;;;5091299;28;20028;-52
2022/06/18 13:11:16;;;;;;;3.25;1.60;;;;;;;;;;5091070;28;20032;-52
2022/06/18 13:13:41;;;;;;;1.77;1.30;;;;;;;;;;5090851;28;20047;-46
2022/06/18 13:16:17;;;;;;;2.05;1.55;;;;;;;;;;5091174;28;20134;-53
2022/06/18 13:18:52;;;;;;;1.95;1.40;;;;;;;;;;5090929;28;20048;-51
2022/06/18 13:21:17;;;;;;;1.75;1.40;;;;;;;;;;5091486;28;20047;-47
2022/06/18 13:29:52;;;;;;;1.70;1.60;;;;;;;;;;5091480;28;20085;-45
2022/06/18 13:32:23;;;;;;;2.05;1.77;;;;;;;;;;5090862;28;20380;-47
2022/06/18 13:35:26;;;;;;;1.58;1.48;;;;;;;;;;5090570;28;20138;-48
2022/06/18 13:38:13;;;;;;;2.00;1.40;;;;;;;;;;5077559;28;20036;-46
2022/06/18 13:40:54;;;;;;;3.40;1.80;;;;;;;;;;5091020;28;20036;-46
2022/06/18 13:43:35;;;;;;;2.60;1.45;;;;;;;;;;5091001;28;20024;-47
2022/06/18 13:46:29;;;;;;;1.40;1.30;;;;;;;;;;5090979;28;20113;-44
2022/06/18 13:49:02;;;;;;;3.08;1.60;;;;;;;;;;5060523;28;20105;-44
2022/06/18 13:51:32;;;;;;;1.73;1.63;;;;;;;;;;5090530;28;20067;-51
2022/06/18 13:54:12;;;;;;;5.47;1.75;;;;;;;;;;5090748;28;20110;-53
2022/06/18 13:56:41;;;;;;;2.17;1.60;;;;;;;;;;5090737;28;20036;-51
2022/06/18 13:59:17;;;;;;;2.83;1.67;;;;;;;;;;5090871;28;20031;-51
2022/06/18 14:01:48;;;;;;;1.58;1.48;;;;;;;;;;5090810;28;20265;-48
2022/06/18 14:04:25;;;;;;;3.78;1.48;;;;;;;;;;5090458;28;20031;-49
2022/06/18 14:06:56;;;;;;;3.05;1.50;;;;;;;;;;5091002;28;20035;-47
2022/06/18 14:09:25;;;;;;;1.65;1.55;;;;;;;;;;5090825;28;20036;-46
2022/06/18 14:11:56;;;;;;;;;;;;;;;;;;5091082;28;20099;-50
2022/06/18 14:14:34;;;;;;;1.95;1.60;;;;;;;;;;5090449;28;19920;-47
2022/06/18 14:17:03;;;;;;;2.58;1.90;;;;;;;;;;5091161;28;20035;-46
2022/06/18 14:19:35;;;;;;;1.85;1.75;;;;;;;;;;5094247;28;20035;-46
2022/06/18 14:22:16;;;;;;;3.05;1.38;;;;;;;;;;5094367;28;20036;-51
2022/06/18 14:24:46;;;;;;;2.90;1.58;;;;;;;;;;5094345;28;20028;-52
2022/06/18 14:27:23;;;;;;;1.52;1.38;;;;;;;;;;5092684;28;20043;-51
2022/06/18 14:29:49;;;;;;;3.30;1.42;;;;;;;;;;5094202;28;20030;-50
2022/06/18 14:32:33;;;;;;;1.67;1.58;;;;;;;;;;5093935;28;20024;-51
2022/06/18 14:35:16;;;;;;;2.75;1.50;;;;;;;;;;5093753;28;20115;-54
2022/06/18 14:37:45;;;;;;;2.75;1.73;;;;;;;;;;5094071;28;20024;-54
2022/06/18 14:40:15;;;;;;;2.38;1.40;;;;;;;;;;5093748;28;20470;-55
2022/06/18 14:42:59;;;;;;;2.67;1.75;;;;;;;;;;5093801;28;20051;-54
2022/06/18 14:45:54;;;;;;;6.38;1.50;;;;;;;;;;5093563;28;20139;-53
2022/06/18 14:48:39;;;;;;;1.60;1.50;;;;;;;;;;5093630;28;20449;-48
2022/06/18 14:51:28;;;;;;;3.20;1.40;;;;;;;;;;5093811;28;20046;-51
2022/06/18 14:54:15;;;;;;;2.00;1.50;;;;;;;;;;5093413;28;20036;-53
2022/06/18 14:57:04;;;;;;;2.75;1.70;;;;;;;;;;5093410;28;20480;-46
2022/06/18 14:59:52;;;;;;;1.60;1.30;;;;;;;;;;5064033;28;20036;-47
2022/06/18 15:02:31;;;;;;;1.88;1.52;;;;;;;;;;5093243;28;20032;-48
2022/06/18 15:04:57;;;;;;;2.80;1.50;;;;;;;;;;5093607;28;20105;-46
2022/06/18 15:07:37;;;;;;;1.73;1.58;;;;;;;;;;5093395;28;20422;-49
2022/06/18 15:10:18;;;;;;;2.97;1.50;;;;;;;;;;5093207;28;20028;-46
2022/06/18 15:12:43;;;;;;;1.63;1.50;;;;;;;;;;5093119;28;20491;-48
2022/06/18 15:15:19;;;;;;;2.65;1.70;;;;;;;;;;5092755;28;20091;-46
2022/06/18 15:23:07;;;;;;;3.50;1.90;;;;;;;;;;5093219;28;20035;-45
2022/06/18 15:25:38;;;;;;;2.63;1.70;;;;;;;;;;5093204;28;20111;-46
2022/06/18 15:28:10;;;;;;;3.40;1.67;;;;;;;;;;5092510;28;20107;-49
2022/06/18 15:30:54;;;;;;;3.97;1.58;;;;;;;;;;5093473;28;20106;-47
2022/06/18 15:33:23;;;;;;;1.85;1.40;;;;;;;;;;5092700;28;20070;-48
2022/06/18 15:35:52;;;;;;;3.40;1.50;;;;;;;;;;5092675;28;20027;-49
2022/06/18 15:38:32;;;;;;;1.65;1.48;;;;;;;;;;5091408;28;20020;-47